ETOU/WIE METAR and TAF weather

Enter ICAO airport designator
Station Type Date Time Source
ETOU METAR 2020/09/26 10:56 UTC NOAA

ETOU 261056Z AUTO 23011KT 9999 FEW022 SCT029 13/08 A2945 RMK AO2 RAB24E33 SLP975 P0000 T01270076 $


Station Type Date Time Source
ETOU Decoded METAR 2020/09/26 10:56 UTC NOAA

Wiesbaden, Germany (ETOU) 50-03N 008-20E
Sep 26, 2020 - 06:56 AM EDT / 2020.09.26 1056 UTC
Wind: from the SW (230 degrees) at 13 MPH (11 KT):0
Visibility: greater than 7 mile(s):0
Sky conditions: partly cloudy
Precipitation last hour: A trace
Temperature: 54.9 F (12.7 C)
Dew Point: 45.7 F (7.6 C)
Relative Humidity: 71%
Pressure (altimeter): 29.45 in. Hg (997 hPa)
ob: ETOU 261056Z AUTO 23011KT 9999 FEW022 SCT029 13/08 A2945 RMK AO2 RAB24E33 SLP975 P0000 T01270076
cycle: 11

Station Type Date Time Source
ETOU TAF 2020/09/26 06:24 UTC NOAA

TAF TAF
AMD ETOU 260620Z 2606/2710 25012G18KT 9999 BKN015 610404 QNH2940INS
BECMG 2610/2611 30010G15KT 8000 -SHRA SCT012 BKN020 610504 QNH2942INS
BECMG 2618/2619 VRB06KT 8000 -SHRA BKN015 610408 QNH2945INS
TEMPO 2622/2703 6000 SHRA BKN010 OVC015 TX13/2611Z TN09/2704Z

Example: see airport list